Olympia Regional Airport Olympia US
ICAO: KOLM
IATA: OLM
Category: Medium
Scheduled Services: No

Elevation: 209 ft
TransAlt. 18000 ft.

Airport Communications:
SEATTLE APP/DEP:121.1
ASOS:135.725
ATIS:135.375
CTAF:124.4
GND:121.6
TWR:124.4
UNICOM:122.95

KOLM Zoom In..

Runways:

(A) RW 08 length 4157 ft width 150 ft
---- / hdg 85

(B) RW 17 length 5500 ft width 150 ft
ILS 111.90 / hdg 172

(C) RW 26 length 4157 ft width 150 ft
---- / hdg 265

(D) RW 35 length 5500 ft width 150 ft
---- / hdg 352

Location; KOLM
Day. 24 / Time. 01.54 Zulu
* Altimeter: 29.75
* Temperature: 08° c. 46.4°f.
* Wind from: 170° Speed 14 kn with Gusts up to 19 kn.
Dewpoint: 07° c.
Visibility: 10 Statute Miles.
Clouds: Broken 1700 ft.
Clouds: Overcast 2200 ft.
Conditions: Light Rain.

KOLM 240154Z 17014G19KT 10SM -RA BKN017 OVC022 08/07 A2975 RMK AO2 SLP074 P0008 T00780072


Wind From 170°
Speed 14 kn.

YouTube Music Video
 
jpsmedia.com for Web Design  worldairports.se 2018   terms of use